• Join FlightAware (Why Join?)
  • Login
  • US Flag 
 
03:49PM EST


 

Airport Tracker/Info


-or-


 

Live Flight TrackerFlight Track Log ✈ N521LL ✈ 28-Apr-2013 ✈ KCRP - KLBB

Flight Track Log - Related Links

Times and Time Zones

All times are in EDT time to prevent confusion due to time zone crossing. See the N521LL flight status page for this flight to view local times or setup timezone preferences in your user account.

Time Position Orientation Groundspeed Altitude Reporting Facility
EDT Latitude Longitude Course Direction KTS MPH feet Rate Location/Type
11:30AM 27.7144 -97.5178 195° South 261 300 2,400  Level Houston Center
11:31AM 27.7489 -97.5939 297° West 269 310 6,000 2,940 Climbing Houston Center
11:32AM 27.8158 -97.6400 329° Northwest 281 323 8,900 2,820 Climbing Houston Center
11:33AM 27.8922 -97.6675 342° North 286 329 11,900 3,060 Climbing Houston Center
11:34AM 27.9769 -97.7092 337° Northwest 290 334 15,300 3,060 Climbing Houston Center
11:35AM 28.0503 -97.7467 336° Northwest 291 335 18,300 2,220 Climbing Houston Center
11:36AM 28.1247 -97.8039 326° Northwest 299 344 20,000 1,560 Climbing Houston Center
11:37AM 28.2019 -97.8542 330° Northwest 322 371 21,600 1,440 Climbing Houston Center
11:38AM 28.2839 -97.9128 328° Northwest 342 394 23,000 1,200 Climbing Houston Center
11:39AM 28.3714 -97.9683 331° Northwest 356 410 24,100 1,140 Climbing Houston Center
11:40AM 28.4758 -98.0428 328° Northwest 367 422 25,400 1,500 Climbing Houston Center
11:41AM 28.5658 -98.1025 330° Northwest 372 428 27,200 1,380 Climbing Houston Center
11:42AM 28.6517 -98.1628 328° Northwest 365 420 28,300 1,140 Climbing Houston Center
11:44AM 28.7464 -98.2281 329° Northwest 365 420 29,600 1,200 Climbing Houston Center
11:45AM 28.8322 -98.2867 329° Northwest 361 415 30,800 1,140 Climbing Houston Center
11:46AM 28.9222 -98.3489 329° Northwest 351 404 32,000 1,140 Climbing Houston Center
11:47AM 29.0072 -98.4058 330° Northwest 354 407 33,200 1,200 Climbing Houston Center
11:48AM 29.0964 -98.4700 328° Northwest 351 404 34,500 1,560 Climbing Houston Center
11:49AM 29.1803 -98.5253 330° Northwest 347 399 36,500 1,920 Climbing Houston Center
11:50AM 29.2572 -98.5822 327° Northwest 309 356 38,500 1,320 Climbing Houston Center
11:51AM 29.3319 -98.6314 330° Northwest 308 354 39,300 720 Climbing Houston Center
11:52AM 29.4061 -98.6847 328° Northwest 313 360 40,000 300 Climbing Houston Center
11:53AM 29.4931 -98.7447 329° Northwest 334 384 40,000  Level Houston Center
11:54AM 29.5778 -98.8047 328° Northwest 354 407 40,000  Level Houston Center
11:55AM 29.6656 -98.8658 329° Northwest 367 422 40,000  Level Houston Center
11:56AM 29.7628 -98.9328 329° Northwest 376 433 40,000  Level Houston Center
11:57AM 29.8519 -98.9983 327° Northwest 378 435 40,000  Level Houston Center
11:58AM 29.9514 -99.0658 330° Northwest 383 441 40,000  Level Houston Center
11:59AM 30.0336 -99.1275 327° Northwest 382 440 40,000  Level Houston Center
12:00PM 30.1256 -99.1906 329° Northwest 386 444 40,000  Level Houston Center
12:01PM 30.2167 -99.2547 329° Northwest 385 443 40,000  Level Houston Center
12:02PM 30.3083 -99.3203 328° Northwest 387 445 40,000  Level Houston Center
12:03PM 30.4183 -99.3969 329° Northwest 388 447 40,000  Level Houston Center
12:04PM 30.5075 -99.4644 327° Northwest 384 442 40,000  Level Houston Center
12:05PM 30.5997 -99.5278 329° Northwest 387 445 40,000  Level Houston Center
12:06PM 30.6900 -99.5956 327° Northwest 387 445 40,000  Level Houston Center
12:07PM 30.7839 -99.6608 329° Northwest 392 451 40,000  Level Houston Center
12:08PM 30.8747 -99.7272 328° Northwest 390 449 40,000  Level Houston Center
12:09PM 30.9853 -99.8083 328° Northwest 394 453 40,000  Level Houston Center
12:10PM 31.0775 -99.8742 329° Northwest 391 450 40,000  Level Houston Center
12:11PM 31.1692 -99.9425 327° Northwest 394 453 40,000  Level Houston Center
12:12PM 31.2628 -100.0083 329° Northwest 394 453 40,000  Level Houston Center
12:13PM 31.3531 -100.0772 327° Northwest 392 451 40,000  Level Houston Center
12:14PM 31.3953 -100.1075 329° Northwest 392 451 40,000  Level Fort Worth Center
12:15PM 31.4878 -100.1758 328° Northwest 384 442 40,000  Level Fort Worth Center
12:16PM 31.5781 -100.2444 327° Northwest 384 442 40,000  Level Fort Worth Center
12:17PM 31.6808 -100.3183 329° Northwest 384 442 40,000  Level Fort Worth Center
12:18PM 31.7731 -100.3872 328° Northwest 384 442 40,000  Level Fort Worth Center
12:19PM 31.8653 -100.4586 327° Northwest 384 442 40,000  Level Fort Worth Center
12:20PM 31.9597 -100.5256 329° Northwest 384 442 40,000  Level Fort Worth Center
12:21PM 32.0497 -100.5947 327° Northwest 384 442 40,000  Level Fort Worth Center
12:22PM 32.1481 -100.6669 328° Northwest 389 448 40,000  Level Fort Worth Center
12:23PM 32.2403 -100.7364 328° Northwest 389 448 40,000  Level Fort Worth Center
12:24PM 32.3344 -100.8064 328° Northwest 394 453 40,000  Level Fort Worth Center
12:25PM 32.4286 -100.8764 328° Northwest 394 453 40,000 -600 Level Fort Worth Center
12:26PM 32.5225 -100.9464 328° Northwest 399 459 38,900 -1,920 Descending Fort Worth Center
12:27PM 32.6125 -101.0142 328° Northwest 394 453 36,200 -2,760 Descending Fort Worth Center
12:28PM 32.7003 -101.0819 327° Northwest 389 448 33,400 -2,820 Descending Fort Worth Center
12:29PM 32.7942 -101.1525 328° Northwest 384 442 30,600 -2,820 Descending Fort Worth Center
12:30PM 32.8800 -101.2203 326° Northwest 384 442 27,800 -2,880 Descending Fort Worth Center
12:31PM 32.9678 -101.2811 330° Northwest 384 442 24,900 -2,880 Descending Fort Worth Center
12:31PM 32.9922 -101.3044 321° Northwest 374 430 24,200 -2,640 Descending Fort Worth Center
12:32PM 33.0553 -101.3517 328° Northwest 379 436 22,300 -2,820 Descending Fort Worth Center
12:33PM 33.1411 -101.4100 330° Northwest 362 417 19,400 -2,700 Descending Fort Worth Center
12:34PM 33.2183 -101.4731 326° Northwest 345 397 17,000 -2,580 Descending Fort Worth Center
12:35PM 33.3144 -101.5397 330° Northwest 330 380 13,700 -2,700 Descending Fort Worth Center
12:36PM 33.3889 -101.5531 351° North 330 380 11,600 -2,400 Descending Fort Worth Center
12:37PM 33.4903 -101.5828 346° North 310 357 8,900 -2,100 Descending Fort Worth Center
12:38PM 33.5544 -101.5958 350° North 299 344 7,400 -1,680 Descending Fort Worth Center
12:39PM 33.6292 -101.6144 348° North 279 321 6,000 -1,140 Descending Fort Worth Center
12:39PM 33.6478 -101.6203 345° North 268 308 6,000  Level Fort Worth Center
12:40PM 33.6656 -101.6486 307° West 174 200 6,000 -300 Level Fort Worth Center
12:40PM 33.6606 -101.6683 253° West 151 174 5,700 -1,140 Descending Fort Worth Center
12:41PM 33.6636 -101.7033 276° West 151 174 4,900 -1,020 Descending Fort Worth Center
12:41PM 33.6611 -101.7181 258° West 144 166 4,700 -840 Descending Fort Worth Center
12:42PM 33.6619 -101.7531 272° West 156 180 4,100 -900 Descending Fort Worth Center
12:42PM 33.6592 -101.7706 259° West 150 173 3,800 -900 Descending Fort Worth Center
12:43PM 33.6625 -101.7981 278° West 144 166 3,200 -300 Descending Fort Worth Center
12:44PM 33.6617 -101.8206 267° West 131 151 3,300  Climbing Fort Worth Center
12:45PM 33.6594 -101.8228 220° Southwest 95 109 3,300  Level Fort Worth Center
12:46PM 33.6592 -101.8303 267° West 36 41 3,300  Level Fort Worth Center
12:48PM 33.6637 -101.8206 61° Northeast  Level Estimated
12:55PM 33.6637 -101.8206 132° Southeast  Level Estimated
12:56PM 33.6637 -101.8206 132° Southeast  Level Estimated
12:57PM 33.6637 -101.8206 132° Southeast  Level Estimated
12:58PM 33.6637 -101.8206 132° Southeast  Level Estimated